x

Portland 12 Nm Southeast Of Portland,me (44007) Wave Buoy

5:50pm - Thu 18th Sep 2014 All times are EDT. -4 hours from GMT.

  • Sig Wave height 2.6ft
  • Swell Direction
  • Peak Period 11s
  • Average Period 8s
  • Wind
    4mph
  • Sea Temp 60°f
  • 空気 Temp 61°f
  • Sea Pressure 1015.4mb
  • Portland 12 Nm Southeast Of Portland,me
  • Portland 12 Nm Southeast Of Portland,me

More Historic Weather Station data

Upgrade to MSW Pro to gain access to the past 30 days of data for over 8000 Wavebouys and Weather Stations around the globe.

Join Pro

Comparision Forecast

View Surf forecast
   
Thu 09/18 5:50pm 2.5ft 11s 8s 4
mph
1015.4mb 60f 61f
4:50pm 2.5ft 13s 8s 4 7 mph 1014.6mb 60f 62f
3:50pm 3.5ft 13s 9s 4 7 mph 1014.3mb 60f 61f
2:50pm 3.5ft 11s 9s 2 4 mph 1014.2mb 61f 62f
1:50pm 4.5ft 13s 10s 7 9 mph 1013.9mb 62f 61f
12:50pm 5ft 13s 10s 4
mph
1014mb 62f 60f
11:50am 4.5ft 13s 10s 2 4 mph 1014.2mb 61f 59f
10:50am 4.5ft 14s 10s 4
mph
1014.4mb 60f 57f
9:50am 4ft 13s 10s 2
mph
1014.4mb 59f 56f
8:50am 3.5ft 14s 9s 7 9 mph 1014mb 59f 54f
7:50am 3.5ft 14s 9s 7 9 mph 1013.7mb 59f 55f
6:50am 3ft 14s 9s 4 7 mph 1013.3mb 59f 54f
5:50am 3ft 14s 8s 7 9 mph 1012.8mb 59f 55f
4:50am 3ft 15s 8s 9
mph
1012.3mb 59f 57f
3:50am 3.5ft 14s 8s 9 11 mph 1012.3mb 59f 58f
2:50am 3.5ft 15s 8s 7 9 mph 1012.8mb 59f 58f
1:50am 3.5ft 14s 8s 9
mph
1013.2mb 60f 58f
12:50am 3.5ft 12s 8s 9 11 mph 1013.4mb 60f 59f
Wed 09/17 11:50pm 3.5ft 13s 9s 9
mph
1013.7mb 60f 60f
10:50pm 3ft 13s 8s 9 11 mph 1013.8mb 60f 60f
9:50pm 2.5ft 12s 9s 9 11 mph 1014.2mb 60f 61f
8:50pm 3ft 12s 10s 7 9 mph 1014.7mb 60f 60f
7:50pm 2.5ft 13s 10s 9
mph
1014.4mb 61f 61f
6:50pm 2.5ft 13s 10s 4
mph
1014mb 61f 60f
5:50pm 2.5ft 14s 10s 4 7 mph 1013.8mb 61f 60f
4:50pm 2ft 15s 9s 7 9 mph 1013.8mb 61f 60f
3:50pm 2.5ft 14s 10s 7 9 mph 1014.1mb 62f 60f
2:50pm 2.5ft 15s 10s 7
mph
1014.4mb 62f 60f
1:50pm 2.5ft 14s 10s 4
mph
1015.1mb 63f 60f
12:50pm 2.5ft 14s 10s 2
mph
1015.7mb 62f 59f
11:50am 2.5ft 15s 10s 2 4 mph 1015.9mb 61f 58f
10:50am 2ft 14s 9s 2 4 mph 1016mb 60f 58f
9:50am 1.6ft 11s 9s 2
mph
1016.1mb 60f 57f
8:50am 1.3ft 12s 8s  -  2 mph 1016mb 59f 57f
7:50am 1.3ft 12s 8s 4 7 mph 1015.7mb 59f 56f
6:50am 1.3ft 14s 7s 4
mph
1015.2mb 59f 55f
5:50am 1.3ft 16s 7s 7
mph
1014.8mb 59f 55f
4:50am 1.3ft 14s 6s 7 9 mph 1014.7mb 59f 56f
3:50am 1.3ft 12s 6s 7
mph
1014.5mb 59f 56f
2:50am 1.3ft 13s 5s 4
mph
1014.6mb 59f 56f
1:50am 1.6ft 13s 5s 7
mph
1015mb 59f 56f
12:50am 1.6ft 14s 6s 7
mph
1015mb 59f 57f
Tue 09/16 11:50pm 1.6ft 12s 6s 9 11 mph 1015mb 59f 58f
10:50pm 1.6ft 11s 6s 9 11 mph 1014.9mb 59f 60f
9:50pm 1.6ft 12s 6s 9
mph
1014.7mb 59f 60f
8:50pm 1.3ft 11s 5s 9
mph
1014.5mb 59f 59f
7:50pm 1.3ft 12s 5s 7
mph
1014.1mb 59f 58f
6:50pm 1.3ft 12s 5s 4 7 mph 1014mb 59f 58f
5:50pm 1.3ft 12s 5s 4 7 mph 1013.9mb 59f 58f
4:50pm 1.3ft 13s 5s 4
mph
1014mb 60f 58f
3:50pm 1.3ft 13s 5s 4
mph
1014.4mb 60f 58f
2:50pm 1.3ft 7s 6s 4
mph
1014.4mb 60f 58f
1:50pm 1.3ft 7s 5s 4
mph
1014.8mb 60f 57f
12:50pm 1.6ft 12s 5s  -  mph 1015.6mb 60f 57f
11:50am 1.3ft 10s 5s 2
mph
1016.3mb 59f 57f
10:50am 1.6ft 12s 5s  -  mph 1016.7mb 59f 57f
9:50am 1.6ft 13s 5s 2
mph
1017mb 59f 56f
8:50am 1.6ft 13s 5s 7
mph
1017.3mb 59f 55f
7:50am 1.6ft 12s 5s 9 11 mph 1017.3mb 59f 55f
6:50am 1.6ft 7s 4s 13
mph
1017.4mb 59f 57f
5:50am 1.6ft 8s 4s 11 13 mph 1017.4mb 59f 57f
4:50am 1.6ft 7s 4s 9 11 mph 1017.1mb 59f 57f
3:50am 1.6ft 4s 4s 7 9 mph 1017.3mb 59f 57f
2:50am 2ft 4s 4s 7 9 mph 1018.3mb 59f 58f
1:50am 2ft 3s 4s 11 13 mph 1018.9mb 59f 58f
12:50am 1.6ft 3s 4s 16 18 mph 1019.1mb 59f 60f
Mon 09/15 11:50pm 1.3ft 3s 4s 13
mph
1018.9mb 59f 60f
10:50pm 1.3ft 13s 4s 11 13 mph 1019.3mb 59f 60f
9:50pm 1.3ft 12s 4s 11 13 mph 1019.4mb 59f 60f
8:50pm 1.3ft 9s 4s 9 11 mph 1020mb 59f 59f
7:50pm 1.3ft 12s 4s 11
mph
1019.6mb 59f 59f
6:50pm 1ft 12s 4s 11
mph
1019.7mb 59f 58f
5:50pm 1.3ft 6s 5s 9 11 mph 1019.8mb 60f 58f
4:50pm 1ft 7s 6s 9 11 mph 1019.9mb 60f 56f
3:50pm 1.3ft 7s 6s 7 9 mph 1020.4mb 60f 56f
2:50pm 1.3ft 8s 6s 7 9 mph 1020.7mb 61f 55f
1:50pm 1.3ft 7s 5s 4 7 mph 1021.5mb 60f 53f
12:50pm 1ft 7s 5s 4
mph
1022.1mb 60f 53f
11:50am 1.3ft 8s 4s 2 4 mph 1022.8mb 60f 52f
10:50am 1.3ft 8s 4s 4 7 mph 1023.5mb 59f 51f
9:50am 1.3ft 8s 4s 9 11 mph 1023.7mb 59f 51f
8:50am 1.3ft 8s 5s 9 11 mph 1023.8mb 59f 50f
7:50am 1.3ft 7s 5s 9 11 mph 1023.9mb 59f 51f
6:50am 1.6ft 7s 5s 7 9 mph 1023.7mb 59f 51f
5:50am 1.6ft 8s 4s 9 11 mph 1023.8mb 59f 51f
4:50am 1.6ft 8s 4s 9 13 mph 1023.2mb 59f 52f
3:50am 1.6ft 7s 4s 11 13 mph 1022.7mb 59f 52f
2:50am 1.6ft 7s 4s 13 16 mph 1022.9mb 59f 52f
1:50am 1.6ft 3s 3s 13 18 mph 1023mb 59f 52f
12:50am 1.6ft 3s 3s 16 18 mph 1023.2mb 59f 53f
Sun 09/14 11:50pm 1.6ft 7s 3s 16 20 mph 1023.2mb 59f 53f